Time;durP1;ratioP1;P1;durP2;ratioP2;P2;SDS_P1;SDS_P2;PMS_P1;PMS_P2;Temp;Humidity;BMP_temperature;BMP_pressure;BME280_temperature;BME280_humidity;BME280_pressure;Samples;Min_cycle;Max_cycle;Signal;HPM_P1;HPM_P2
2021/01/24 00:00:51;;;;;;;;;;;;;;;7.89;52.79;99208.44;4956422;28;19998;-76
2021/01/24 00:03:21;;;;;;;;;;;;;;;7.87;52.94;99203.25;4950480;29;20296;-76
2021/01/24 00:05:48;;;;;;;;;;;;;;;7.86;53.18;99201.53;4957106;28;20011;-76
2021/01/24 00:08:16;;;;;;;;;;;;;;;7.84;52.79;99197.25;4938278;28;19937;-76
2021/01/24 00:10:43;;;;;;;;;;;;;;;7.81;52.59;99206.13;4956861;28;19935;-76
2021/01/24 00:13:10;;;;;;;;;;;;;;;7.79;53.02;99206.19;4948317;28;19930;-77
2021/01/24 00:15:37;;;;;;;;;;;;;;;7.78;53.17;99217.63;4954453;28;19961;-77
2021/01/24 00:18:05;;;;;;;;;;;;;;;7.77;52.72;99215.06;4954814;28;19965;-76
2021/01/24 00:20:33;;;;;;;;;;;;;;;7.74;53.15;99217.84;4936661;29;19927;-76
2021/01/24 00:22:59;;;;;;;;;;;;;;;7.74;53.21;99215.19;4952391;29;19931;-76
2021/01/24 00:25:32;;;;;;;;;;;;;;;7.74;53.37;99223.09;4937647;29;19931;-77
2021/01/24 00:27:59;;;;;;;;;;;;;;;7.75;53.59;99217.75;4955756;28;19926;-77
2021/01/24 00:30:25;;;;;;;;;;;;;;;7.77;53.31;99223.84;4946607;29;19927;-76
2021/01/24 00:32:52;;;;;;;;;;;;;;;7.81;53.18;99227.19;4933398;29;19934;-77
2021/01/24 00:35:19;;;;;;;;;;;;;;;7.82;53.04;99224.47;4932513;29;19993;-76
2021/01/24 00:37:47;;;;;;;;;;;;;;;7.86;53.03;99227.84;4954618;28;19934;-77
2021/01/24 00:40:14;;;;;;;;;;;;;;;7.88;53.50;99220.78;4951500;28;19977;-77
2021/01/24 00:42:40;;;;;;;;;;;;;;;7.94;53.50;99227.56;4941447;29;19931;-77
2021/01/24 00:45:08;;;;;;;;;;;;;;;7.97;53.06;99220.38;4942176;29;19930;-77
2021/01/24 00:47:36;;;;;;;;;;;;;;;8.00;53.01;99213.25;4947273;28;19933;-76
2021/01/24 00:50:03;;;;;;;;;;;;;;;8.06;52.69;99215.66;4957593;28;19933;-77
2021/01/24 00:52:30;;;;;;;;;;;;;;;8.08;53.22;99219.94;4946929;28;19938;-76
2021/01/24 00:54:58;;;;;;;;;;;;;;;8.11;53.01;99219.81;4935455;29;19926;-76
2021/01/24 00:57:25;;;;;;;;;;;;;;;8.14;53.58;99213.56;4957168;28;19934;-76
2021/01/24 00:59:54;;;;;;;;;;;;;;;8.18;52.72;99216.91;4931665;28;19931;-77
2021/01/24 01:02:21;;;;;;;;;;;;;;;8.16;53.31;99224.88;4953958;28;19934;-76
2021/01/24 01:04:48;;;;;;;;;;;;;;;8.18;52.63;99222.19;4949856;28;19938;-77
2021/01/24 01:07:15;;;;;;;;;;;;;;;8.18;53.05;99219.56;4951977;28;19951;-76
2021/01/24 01:09:42;;;;;;;;;;;;;;;8.18;53.40;99219.56;4956337;28;19994;-76
2021/01/24 01:12:10;;;;;;;;;;;;;;;8.19;53.14;99218.63;4944672;29;19927;-76
2021/01/24 01:14:37;;;;;;;;;;;;;;;8.18;52.85;99207.25;4956865;28;19933;-76
2021/01/24 01:17:04;;;;;;;;;;;;;;;8.16;53.66;99216.16;4956048;28;19941;-76
2021/01/24 01:19:31;;;;;;;;;;;;;;;8.14;53.11;99214.44;4952637;28;19954;-76
2021/01/24 01:21:58;;;;;;;;;;;;;;;8.15;53.69;99210.00;4929301;28;19931;-76
2021/01/24 01:24:25;;;;;;;;;;;;;;;8.12;53.21;99218.88;4954089;28;19930;-76
2021/01/24 01:26:51;;;;;;;;;;;;;;;8.14;53.26;99213.56;4954521;28;19930;-77
2021/01/24 01:29:19;;;;;;;;;;;;;;;8.12;53.92;99210.97;4959168;28;19961;-76
2021/01/24 01:31:46;;;;;;;;;;;;;;;8.10;53.66;99207.56;4952260;28;19930;-77
2021/01/24 01:34:13;;;;;;;;;;;;;;;8.13;53.21;99206.59;4951665;28;20005;-76
2021/01/24 01:36:40;;;;;;;;;;;;;;;8.10;53.11;99207.56;4946293;29;19930;-77
2021/01/24 01:39:07;;;;;;;;;;;;;;;8.10;53.36;99211.97;4956269;28;19972;-76
2021/01/24 01:41:34;;;;;;;;;;;;;;;8.07;53.63;99206.84;4957745;28;20350;-77
2021/01/24 01:44:01;;;;;;;;;;;;;;;8.06;53.76;99199.84;4957220;28;19936;-77
2021/01/24 01:46:29;;;;;;;;;;;;;;;8.06;53.84;99220.91;4961602;28;19949;-76
2021/01/24 01:48:57;;;;;;;;;;;;;;;8.03;53.81;99205.25;4939946;29;19930;-76
2021/01/24 01:51:24;;;;;;;;;;;;;;;8.02;53.47;99204.38;4933899;29;19958;-77
2021/01/24 01:53:53;;;;;;;;;;;;;;;8.02;53.62;99211.44;4950171;28;20314;-76
2021/01/24 01:56:20;;;;;;;;;;;;;;;8.00;53.78;99214.13;4954862;28;19981;-77
2021/01/24 01:58:46;;;;;;;;;;;;;;;7.99;53.55;99225.59;4958227;28;19931;-77
2021/01/24 02:01:19;;;;;;;;;;;;;;;7.96;53.86;99217.81;4956431;28;19927;-77
2021/01/24 02:03:50;;;;;;;;;;;;;;;7.94;53.96;99223.13;4953738;28;19931;-76
2021/01/24 02:06:21;;;;;;;;;;;;;;;8.02;54.06;99222.81;4951053;28;19966;-77
2021/01/24 02:08:53;;;;;;;;;;;;;;;8.10;53.62;99228.66;4940688;29;20417;-76
2021/01/24 02:11:23;;;;;;;;;;;;;;;8.12;53.24;99231.22;4953862;28;19989;-76
2021/01/24 02:13:55;;;;;;;;;;;;;;;8.17;53.44;99231.88;4964733;28;19926;-77
2021/01/24 02:16:22;;;;;;;;;;;;;;;8.25;51.99;99226.28;4952942;28;19965;-77
2021/01/24 02:18:52;;;;;;;;;;;;;;;8.28;51.24;99231.41;4953379;28;19934;-77
2021/01/24 02:21:26;;;;;;;;;;;;;;;8.36;50.12;99233.75;4957730;28;20025;-76
2021/01/24 02:23:54;;;;;;;;;;;;;;;8.42;48.92;99244.03;4942117;29;19931;-77
2021/01/24 02:26:28;;;;;;;;;;;;;;;8.50;47.65;99241.94;4963036;28;19927;-77
2021/01/24 02:29:04;;;;;;;;;;;;;;;8.53;47.00;99236.53;4958091;28;19926;-77
2021/01/24 02:31:34;;;;;;;;;;;;;;;8.54;46.36;99235.63;4943119;29;19930;-76
2021/01/24 02:34:02;;;;;;;;;;;;;;;8.58;46.51;99245.09;4960271;28;19951;-76
2021/01/24 02:36:31;;;;;;;;;;;;;;;8.64;45.40;99254.50;4948715;29;20410;-76
2021/01/24 02:39:02;;;;;;;;;;;;;;;8.67;45.19;99249.13;4958968;28;19934;-77
2021/01/24 02:41:29;;;;;;;;;;;;;;;8.52;45.96;99253.25;4960438;28;19926;-76
2021/01/24 02:43:56;;;;;;;;;;;;;;;8.47;46.59;99260.53;4941298;29;19934;-76
2021/01/24 02:46:23;;;;;;;;;;;;;;;8.41;47.16;99256.31;4953253;28;20025;-76
2021/01/24 02:48:54;;;;;;;;;;;;;;;8.39;47.54;99257.31;4944334;29;20024;-76
2021/01/24 02:51:21;;;;;;;;;;;;;;;8.40;48.24;99266.94;4961738;28;19931;-77
2021/01/24 02:53:49;;;;;;;;;;;;;;;8.41;48.08;99264.22;4966247;28;19934;-76
2021/01/24 02:56:16;;;;;;;;;;;;;;;8.41;48.88;99260.75;4959628;28;19937;-77
2021/01/24 02:58:43;;;;;;;;;;;;;;;8.40;48.95;99270.41;4939735;29;19930;-76
2021/01/24 03:01:10;;;;;;;;;;;;;;;8.40;49.09;99269.56;4938308;29;19973;-76
2021/01/24 03:03:37;;;;;;;;;;;;;;;8.41;48.95;99266.03;4940593;29;19949;-76
2021/01/24 03:06:05;;;;;;;;;;;;;;;8.43;49.37;99259.78;4937594;28;19998;-77
2021/01/24 03:08:32;;;;;;;;;;;;;;;8.43;49.49;99257.13;4955632;28;19933;-76
2021/01/24 03:10:59;;;;;;;;;;;;;;;8.40;50.08;99262.50;4958915;28;19939;-76
2021/01/24 03:13:39;;;;;;;;;;;;;;;8.40;49.68;99257.25;4945372;28;19926;-77
2021/01/24 03:16:06;;;;;;;;;;;;;;;8.38;49.97;99256.47;4952756;28;20362;-77
2021/01/24 03:18:36;;;;;;;;;;;;;;;8.37;50.37;99260.03;4958778;28;19930;-76
2021/01/24 03:21:04;;;;;;;;;;;;;;;8.38;50.71;99250.31;4963740;28;19959;-77
2021/01/24 03:23:33;;;;;;;;;;;;;;;8.33;50.62;99253.16;4951860;28;20403;-76
2021/01/24 03:26:00;;;;;;;;;;;;;;;8.33;51.14;99250.53;4951943;28;19966;-77
2021/01/24 03:28:31;;;;;;;;;;;;;;;8.31;51.24;99249.72;4941337;29;19930;-77
2021/01/24 03:30:58;;;;;;;;;;;;;;;8.30;51.11;99250.66;4940394;29;19927;-76
2021/01/24 03:33:28;;;;;;;;;;;;;;;8.25;51.42;99250.00;4956963;28;19931;-77
2021/01/24 03:35:55;;;;;;;;;;;;;;;8.25;51.06;99252.63;4957120;28;19927;-77
2021/01/24 03:38:24;;;;;;;;;;;;;;;8.22;51.24;99251.00;4955748;28;20025;-77
2021/01/24 03:40:52;;;;;;;;;;;;;;;8.19;51.75;99253.72;4934698;29;19935;-76
2021/01/24 03:43:18;;;;;;;;;;;;;;;8.17;52.11;99257.34;4954024;28;19998;-77
2021/01/24 03:45:45;;;;;;;;;;;;;;;8.17;52.12;99257.34;4950285;29;19926;-77
2021/01/24 03:48:12;;;;;;;;;;;;;;;8.16;52.13;99255.66;4941488;28;19936;-76
2021/01/24 03:50:39;;;;;;;;;;;;;;;8.11;52.07;99253.19;4963193;28;20261;-77
2021/01/24 03:53:06;;;;;;;;;;;;;;;8.11;52.13;99250.56;4941005;29;20028;-76
2021/01/24 03:55:33;;;;;;;;;;;;;;;8.10;51.97;99240.94;4952581;28;19945;-76
2021/01/24 03:58:00;;;;;;;;;;;;;;;8.10;52.14;99240.94;4956590;28;19937;-77
2021/01/24 04:00:27;;;;;;;;;;;;;;;8.07;51.94;99241.06;4945498;28;19962;-76
2021/01/24 04:02:54;;;;;;;;;;;;;;;8.04;52.00;99242.06;4960779;28;19965;-76
2021/01/24 04:05:21;;;;;;;;;;;;;;;8.04;52.68;99249.13;4953993;28;19927;-76
2021/01/24 04:07:48;;;;;;;;;;;;;;;8.03;52.76;99260.56;4942905;29;19927;-76
2021/01/24 04:10:15;;;;;;;;;;;;;;;8.00;52.75;99250.13;4949275;28;19998;-76
2021/01/24 04:12:42;;;;;;;;;;;;;;;8.00;52.78;99247.50;4951583;28;19930;-76
2021/01/24 04:15:11;;;;;;;;;;;;;;;7.97;52.82;99251.13;4949864;28;19938;-76
2021/01/24 04:17:37;;;;;;;;;;;;;;;7.98;52.56;99244.94;4958300;28;19938;-76
2021/01/24 04:20:05;;;;;;;;;;;;;;;7.95;52.81;99251.19;4958847;28;19935;-76
2021/01/24 04:22:32;;;;;;;;;;;;;;;7.95;52.88;99245.91;4944199;29;19933;-76
2021/01/24 04:24:59;;;;;;;;;;;;;;;7.95;53.14;99247.72;4946094;28;19986;-76
2021/01/24 04:27:25;;;;;;;;;;;;;;;7.96;52.60;99241.53;4960915;28;19938;-77
2021/01/24 04:29:52;;;;;;;;;;;;;;;7.96;53.33;99242.38;4959539;28;19950;-75
2021/01/24 04:32:20;;;;;;;;;;;;;;;7.99;52.79;99236.13;4962129;28;19957;-76
2021/01/24 04:34:47;;;;;;;;;;;;;;;8.02;53.43;99235.13;4936950;29;19951;-76
2021/01/24 04:37:14;;;;;;;;;;;;;;;8.07;53.17;99238.44;4956882;28;19930;-76
2021/01/24 04:39:41;;;;;;;;;;;;;;;8.08;52.72;99237.53;4954451;28;19937;-76
2021/01/24 04:42:08;;;;;;;;;;;;;;;8.10;52.77;99235.69;4938828;28;19927;-77
2021/01/24 04:44:35;;;;;;;;;;;;;;;8.13;52.60;99232.94;4964630;29;19931;-77
2021/01/24 04:47:04;;;;;;;;;;;;;;;8.19;52.86;99234.44;4957349;28;19968;-76
2021/01/24 04:49:32;;;;;;;;;;;;;;;8.20;53.07;99242.28;4946670;29;20383;-77
2021/01/24 04:52:00;;;;;;;;;;;;;;;8.23;52.57;99234.22;4955250;28;19927;-77
2021/01/24 04:54:27;;;;;;;;;;;;;;;8.25;52.86;99239.47;4943022;29;20330;-76
2021/01/24 04:56:55;;;;;;;;;;;;;;;8.26;52.79;99233.25;4952268;28;19972;-76
2021/01/24 04:59:21;;;;;;;;;;;;;;;8.25;52.91;99234.19;4953008;28;19931;-76
2021/01/24 05:01:49;;;;;;;;;;;;;;;8.27;52.69;99242.88;4944909;28;19985;-75
2021/01/24 05:04:17;;;;;;;;;;;;;;;8.26;52.96;99241.16;4963294;28;19930;-76
2021/01/24 05:06:44;;;;;;;;;;;;;;;8.28;52.86;99237.53;4950262;28;19926;-77
2021/01/24 05:09:12;;;;;;;;;;;;;;;8.27;52.88;99240.25;4956043;28;19998;-76
2021/01/24 05:11:48;;;;;;;;;;;;;;;8.26;52.54;99239.41;4955428;28;19958;-76
2021/01/24 05:14:15;;;;;;;;;;;;;;;8.26;53.19;99244.66;4951251;28;19930;-76
2021/01/24 05:16:43;;;;;;;;;;;;;;;8.26;53.06;99238.53;4954262;28;19930;-76
2021/01/24 05:19:10;;;;;;;;;;;;;;;8.25;53.12;99240.31;4952977;28;19966;-76
2021/01/24 05:21:37;;;;;;;;;;;;;;;8.26;53.05;99251.69;4954183;28;19942;-77
2021/01/24 05:24:08;;;;;;;;;;;;;;;8.24;53.15;99243.00;4940040;28;19930;-77
2021/01/24 05:26:37;;;;;;;;;;;;;;;8.23;53.01;99242.13;4943280;29;19958;-76
2021/01/24 05:29:04;;;;;;;;;;;;;;;8.22;53.63;99244.84;4945463;29;19956;-76
2021/01/24 05:31:31;;;;;;;;;;;;;;;8.22;53.16;99244.84;4952087;28;19951;-76
2021/01/24 05:33:58;;;;;;;;;;;;;;;8.21;53.10;99251.03;4957392;28;19927;-77
2021/01/24 05:36:25;;;;;;;;;;;;;;;8.21;53.47;99253.66;4956068;28;19927;-76
2021/01/24 05:38:53;;;;;;;;;;;;;;;8.18;53.43;99249.41;4960569;28;19930;-76
2021/01/24 05:41:21;;;;;;;;;;;;;;;8.17;53.52;99252.06;4949356;28;20470;-77
2021/01/24 05:43:48;;;;;;;;;;;;;;;8.16;53.30;99248.59;4957067;28;19934;-77
2021/01/24 05:46:15;;;;;;;;;;;;;;;8.16;53.57;99258.28;4951918;28;20049;-77
2021/01/24 05:48:48;;;;;;;;;;;;;;;8.13;53.54;99259.28;4958907;28;19930;-77
2021/01/24 05:51:16;;;;;;;;;;;;;;;8.14;53.60;99260.97;4939225;29;19962;-77
2021/01/24 05:53:45;;;;;;;;;;;;;;;8.12;53.95;99268.94;4952228;29;19945;-75
2021/01/24 05:56:15;;;;;;;;;;;;;;;8.12;53.59;99258.41;4941564;28;19970;-76
2021/01/24 05:58:44;;;;;;;;;;;;;;;8.11;53.58;99254.03;4954788;28;19930;-77
2021/01/24 06:01:11;;;;;;;;;;;;;;;8.09;53.81;99260.28;4955595;28;19927;-76
2021/01/24 06:03:38;;;;;;;;;;;;;;;8.08;53.76;99254.19;4958598;28;19930;-77
2021/01/24 06:06:07;;;;;;;;;;;;;;;8.07;53.53;99257.72;4955189;28;19944;-75
2021/01/24 06:08:34;;;;;;;;;;;;;;;8.05;54.01;99254.31;4944342;29;19957;-76
2021/01/24 06:11:01;;;;;;;;;;;;;;;8.05;54.05;99253.44;4939457;29;20414;-77
2021/01/24 06:13:33;;;;;;;;;;;;;;;8.02;53.57;99254.41;4936626;29;19930;-77
2021/01/24 06:16:05;;;;;;;;;;;;;;;8.03;53.74;99260.56;4954274;28;19927;-76
2021/01/24 06:18:36;;;;;;;;;;;;;;;8.02;54.03;99262.31;4956364;28;19930;-76
2021/01/24 06:21:03;;;;;;;;;;;;;;;8.00;53.54;99263.31;4935887;29;20021;-76
2021/01/24 06:23:33;;;;;;;;;;;;;;;8.13;53.84;99268.03;4956015;28;20224;-76
2021/01/24 06:26:02;;;;;;;;;;;;;;;8.33;51.77;99260.22;4952833;28;19935;-76
2021/01/24 06:28:32;;;;;;;;;;;;;;;8.43;50.37;99266.81;4949749;28;20640;-76
2021/01/24 06:31:01;;;;;;;;;;;;;;;8.55;48.83;99271.59;4934932;29;20442;-77
2021/01/24 06:33:29;;;;;;;;;;;;;;;8.68;47.76;99278.97;4940222;28;19930;-76
2021/01/24 06:36:00;;;;;;;;;;;;;;;8.77;47.05;99279.44;4959125;28;19926;-76
2021/01/24 06:38:28;;;;;;;;;;;;;;;8.83;45.88;99275.69;4937050;29;19935;-75
2021/01/24 06:40:56;;;;;;;;;;;;;;;8.92;45.35;99272.63;4957056;28;19935;-75
2021/01/24 06:43:34;;;;;;;;;;;;;;;8.94;44.96;99281.34;4934107;29;19934;-76
2021/01/24 06:46:01;;;;;;;;;;;;;;;8.99;44.73;99286.41;4949449;28;19931;-76
2021/01/24 06:48:42;;;;;;;;;;;;;;;9.02;44.30;99290.69;4936094;29;19950;-76
2021/01/24 06:51:28;;;;;;;;;;;;;;;8.85;46.30;99289.66;4958716;28;19927;-76
2021/01/24 06:53:55;;;;;;;;;;;;;;;8.85;47.61;99296.69;4955061;28;19977;-75
2021/01/24 06:56:21;;;;;;;;;;;;;;;8.87;47.67;99301.00;4940156;29;19958;-77
2021/01/24 06:58:49;;;;;;;;;;;;;;;9.05;46.21;99299.34;4952194;28;19926;-76
2021/01/24 07:01:23;;;;;;;;;;;;;;;9.16;45.67;99304.13;4956710;29;19934;-76
2021/01/24 07:04:05;;;;;;;;;;;;;;;9.26;44.91;99299.31;4959555;28;19994;-76
2021/01/24 07:06:33;;;;;;;;;;;;;;;9.11;45.28;99299.06;4946117;29;19941;-76
2021/01/24 07:09:00;;;;;;;;;;;;;;;8.96;45.41;99310.28;4961051;28;19933;-76
2021/01/24 07:11:46;;;;;;;;;;;;;;;8.89;46.31;99311.47;4957972;28;19970;-76
2021/01/24 07:14:28;;;;;;;;;;;;;;;8.86;46.69;99315.09;4960006;28;20401;-76
2021/01/24 07:16:55;;;;;;;;;;;;;;;8.79;47.53;99318.94;4964434;28;19927;-76
2021/01/24 07:19:22;;;;;;;;;;;;;;;8.76;47.84;99325.19;4951412;28;19926;-77
2021/01/24 07:21:50;;;;;;;;;;;;;;;8.74;47.58;99334.94;4952322;28;19934;-76
2021/01/24 07:24:17;;;;;;;;;;;;;;;8.72;48.19;99335.91;4958600;28;19934;-76
2021/01/24 07:26:44;;;;;;;;;;;;;;;8.71;48.15;99337.72;4940133;28;20478;-76
2021/01/24 07:29:11;;;;;;;;;;;;;;;8.70;48.21;99330.72;4958913;28;19954;-77
2021/01/24 07:31:38;;;;;;;;;;;;;;;8.68;48.97;99329.94;4957297;28;20462;-76
2021/01/24 07:34:05;;;;;;;;;;;;;;;8.69;48.91;99338.69;4939208;28;19934;-77
2021/01/24 07:36:32;;;;;;;;;;;;;;;8.70;49.39;99333.34;4955378;28;19927;-76
2021/01/24 07:39:00;;;;;;;;;;;;;;;8.71;49.45;99348.25;4966880;28;19927;-76
2021/01/24 07:41:27;;;;;;;;;;;;;;;8.69;49.88;99350.09;4960662;28;19927;-76
2021/01/24 07:43:54;;;;;;;;;;;;;;;8.69;49.61;99341.31;4960737;28;19931;-75
2021/01/24 07:46:22;;;;;;;;;;;;;;;8.68;49.41;99345.75;4943417;28;19930;-76
2021/01/24 07:48:48;;;;;;;;;;;;;;;8.69;49.55;99338.69;4943413;29;19931;-76
2021/01/24 07:51:18;;;;;;;;;;;;;;;8.67;50.03;99340.53;4947211;28;19985;-77
2021/01/24 07:53:45;;;;;;;;;;;;;;;8.66;50.02;99350.22;4947809;28;19987;-75
2021/01/24 07:56:13;;;;;;;;;;;;;;;8.66;50.14;99346.75;4953290;28;20443;-76
2021/01/24 07:58:43;;;;;;;;;;;;;;;8.68;50.49;99351.03;4951012;28;20197;-76
2021/01/24 08:01:11;;;;;;;;;;;;;;;8.67;50.72;99349.31;4927297;29;19962;-75
2021/01/24 08:03:38;;;;;;;;;;;;;;;8.67;50.26;99349.31;4931211;29;20029;-74
2021/01/24 08:06:06;;;;;;;;;;;;;;;8.69;50.71;99355.34;4929269;28;19965;-75
2021/01/24 08:08:37;;;;;;;;;;;;;;;8.68;50.76;99356.31;4939396;28;20044;-74
2021/01/24 08:11:07;;;;;;;;;;;;;;;8.68;50.62;99363.34;4912563;29;20201;-74
2021/01/24 08:13:35;;;;;;;;;;;;;;;8.69;50.72;99367.69;4944771;28;19985;-75
2021/01/24 08:16:05;;;;;;;;;;;;;;;8.68;50.56;99371.25;4927792;28;19931;-74
2021/01/24 08:18:32;;;;;;;;;;;;;;;8.68;50.65;99371.25;4944772;28;19930;-75
2021/01/24 08:20:59;;;;;;;;;;;;;;;8.68;50.58;99372.13;4926342;29;20336;-74
2021/01/24 08:23:26;;;;;;;;;;;;;;;8.67;50.94;99365.13;4920144;29;20041;-73
2021/01/24 08:25:53;;;;;;;;;;;;;;;8.70;50.80;99369.41;4924622;29;20362;-75
2021/01/24 08:28:20;;;;;;;;;;;;;;;8.72;51.20;99362.28;4953230;28;19926;-77
2021/01/24 08:30:48;;;;;;;;;;;;;;;8.72;51.06;99364.91;4955321;29;19977;-73
2021/01/24 08:33:18;;;;;;;;;;;;;;;8.73;51.04;99362.25;4926924;29;19930;-75
2021/01/24 08:35:45;;;;;;;;;;;;;;;8.73;50.74;99364.00;4941057;28;20389;-76
2021/01/24 08:38:14;;;;;;;;;;;;;;;8.73;51.03;99369.28;4920803;29;19935;-74
2021/01/24 08:40:42;;;;;;;;;;;;;;;8.74;50.54;99363.09;4956121;28;20067;-77
2021/01/24 08:43:24;;;;;;;;;;;;;;;;;;;;;
2021/01/24 09:02:08;;;;;;;;;;;;;;;8.88;50.81;99370.44;4911414;29;20422;-74
2021/01/24 09:08:57;;;;;;;;;;;;;;;;;;;;;
2021/01/24 09:11:26;;;;;;;;;;;;;;;8.91;51.61;99380.84;4860748;29;19942;-74
2021/01/24 09:14:24;;;;;;;;;;;;;;;8.91;51.10;99381.69;4904713;29;19927;-74
2021/01/24 09:17:16;;;;;;;;;;;;;;;8.92;50.91;99393.13;4895108;29;19988;-75
2021/01/24 09:19:54;;;;;;;;;;;;;;;8.96;50.98;99387.63;4925274;29;19934;-73
2021/01/24 09:22:44;;;;;;;;;;;;;;;9.01;51.31;99387.44;4923126;29;19981;-74
2021/01/24 09:32:58;;;;;;;;;;;;;;;9.23;51.07;99390.03;4928740;28;19987;-75
2021/01/24 09:35:45;;;;;;;;;;;;;;;9.27;50.89;99386.31;4939595;28;19962;-74
2021/01/24 09:38:12;;;;;;;;;;;;;;;9.33;51.10;99382.53;4924020;28;19934;-76
2021/01/24 09:40:39;;;;;;;;;;;;;;;9.37;50.78;99385.91;4942813;28;19998;-75
2021/01/24 09:43:06;;;;;;;;;;;;;;;9.40;50.30;99384.00;4951971;28;19934;-75
2021/01/24 09:45:39;;;;;;;;;;;;;;;9.47;50.51;99392.50;4930444;29;19949;-78
2021/01/24 09:48:43;;;;;;;;;;;;;;;9.47;50.57;99388.06;4939039;28;20764;-79
2021/01/24 09:51:11;;;;;;;;;;;;;;;9.54;50.76;99393.09;4948847;28;19990;-76
2021/01/24 09:53:47;;;;;;;;;;;;;;;9.58;50.61;99390.22;4932536;29;19978;-75
2021/01/24 09:56:40;;;;;;;;;;;;;;;9.67;50.73;99375.75;4930664;29;19926;-74
2021/01/24 09:59:19;;;;;;;;;;;;;;;9.70;50.27;99380.03;4957198;28;20574;-75
2021/01/24 10:02:21;;;;;;;;;;;;;;;9.72;49.95;99386.97;4948086;28;20323;-75
2021/01/24 10:04:48;;;;;;;;;;;;;;;9.76;50.67;99388.53;4927215;29;19927;-76
2021/01/24 10:07:16;;;;;;;;;;;;;;;9.79;50.31;99398.94;4949877;28;20842;-76
2021/01/24 10:09:42;;;;;;;;;;;;;;;9.80;49.98;99386.63;4955686;28;19981;-77
2021/01/24 10:12:10;;;;;;;;;;;;;;;9.86;50.20;99389.00;4934826;28;20463;-77
2021/01/24 10:15:00;;;;;;;;;;;;;;;9.92;50.06;99393.13;4953663;28;19933;-79
2021/01/24 10:17:28;;;;;;;;;;;;;;;9.93;50.23;99394.84;4930921;28;20001;-77
2021/01/24 10:20:43;;;;;;;;;;;;;;;10.02;49.94;99396.19;4954046;28;19926;-79
2021/01/24 10:23:46;;;;;;;;;;;;;;;10.07;49.48;99387.13;4955714;28;19926;-77
2021/01/24 10:26:18;;;;;;;;;;;;;;;10.12;49.65;99393.06;4957583;28;19926;-76
2021/01/24 10:28:48;;;;;;;;;;;;;;;10.21;49.64;99383.81;4951039;28;19958;-76
2021/01/24 10:31:45;;;;;;;;;;;;;;;10.26;49.52;99380.97;4939390;28;20451;-78
2021/01/24 10:35:25;;;;;;;;;;;;;;;10.43;49.35;99390.75;4867386;29;19951;-78
2021/01/24 10:38:40;;;;;;;;;;;;;;;10.63;48.43;99390.63;4822726;29;19938;-77
2021/01/24 10:45:35;;;;;;;;;;;;;;;10.99;47.67;99391.50;4859777;29;19928;-76
2021/01/24 10:48:10;;;;;;;;;;;;;;;11.06;47.49;99382.34;4893774;29;19970;-76
2021/01/24 10:51:23;;;;;;;;;;;;;;;11.10;47.58;99377.75;4890289;29;19932;-77
2021/01/24 10:53:59;;;;;;;;;;;;;;;11.13;47.67;99391.66;4885109;29;19935;-76
2021/01/24 10:56:40;;;;;;;;;;;;;;;11.19;47.47;99386.97;4898435;29;19927;-75
2021/01/24 11:02:34;;;;;;;;;;;;;;;11.20;47.68;99391.34;4927983;29;19937;-76
2021/01/24 11:05:04;;;;;;;;;;;;;;;11.19;47.62;99386.97;4952162;28;19926;-76
2021/01/24 11:07:38;;;;;;;;;;;;;;;11.24;47.71;99387.59;4931193;29;20165;-75
2021/01/24 11:10:12;;;;;;;;;;;;;;;11.22;48.09;99378.91;4928052;29;19982;-75
2021/01/24 11:13:04;;;;;;;;;;;;;;;11.26;47.81;99388.41;4927162;29;19937;-77
2021/01/24 11:15:36;;;;;;;;;;;;;;;11.25;48.03;99379.56;4933935;29;19927;-76
2021/01/24 11:18:16;;;;;;;;;;;;;;;11.21;48.19;99383.31;4938985;29;19926;-75
2021/01/24 11:20:50;;;;;;;;;;;;;;;11.29;48.20;99381.16;4937653;29;19928;-74
2021/01/24 11:23:17;;;;;;;;;;;;;;;11.28;48.23;99382.09;4941527;29;19935;-75
2021/01/24 11:25:47;;;;;;;;;;;;;;;11.29;48.05;99377.63;4927408;29;19935;-73
2021/01/24 11:28:14;;;;;;;;;;;;;;;11.19;47.77;99382.56;4933423;29;19926;-73
2021/01/24 11:30:42;;;;;;;;;;;;;;;11.25;46.79;99379.56;4941323;29;19931;-73
2021/01/24 11:33:09;;;;;;;;;;;;;;;11.34;45.55;99377.41;4944352;29;20592;-73
2021/01/24 11:35:36;;;;;;;;;;;;;;;11.32;44.72;99382.78;4933511;29;20029;-73
2021/01/24 11:38:04;;;;;;;;;;;;;;;11.38;43.83;99382.44;4932248;29;20006;-74
2021/01/24 11:40:31;;;;;;;;;;;;;;;11.40;43.34;99374.41;4931946;29;19938;-73
2021/01/24 11:42:58;;;;;;;;;;;;;;;11.45;42.50;99378.56;4938588;29;19927;-74
2021/01/24 11:45:25;;;;;;;;;;;;;;;11.52;42.05;99373.78;4938790;29;20026;-72
2021/01/24 11:47:52;;;;;;;;;;;;;;;11.55;42.80;99376.25;4932204;29;20594;-74
2021/01/24 11:50:20;;;;;;;;;;;;;;;11.52;42.89;99371.13;4935455;29;20021;-73
2021/01/24 11:52:48;;;;;;;;;;;;;;;11.51;43.39;99376.53;4932332;29;19934;-76
2021/01/24 11:59:06;;;;;;;;;;;;;;;11.50;44.10;99369.50;4845609;29;19951;-76
2021/01/24 12:02:17;;;;;;;;;;;;;;;;;;;;;
2021/01/24 12:05:30;;;;;;;;;;;;;;;11.54;44.62;99365.75;4866335;29;20064;-76
2021/01/24 12:07:57;;;;;;;;;;;;;;;11.53;45.03;99372.84;4876020;29;20376;-76
2021/01/24 12:10:24;;;;;;;;;;;;;;;11.55;45.17;99363.00;4854384;29;19936;-76
2021/01/24 12:12:51;;;;;;;;;;;;;;;11.62;45.03;99364.41;4875042;29;20014;-76
2021/01/24 12:15:18;;;;;;;;;;;;;;;11.61;45.16;99368.00;4887630;29;19935;-76
2021/01/24 12:17:51;;;;;;;;;;;;;;;11.63;45.40;99359.97;4877681;29;19932;-76
2021/01/24 12:20:18;;;;;;;;;;;;;;;11.69;45.15;99357.00;4860142;29;19927;-76
2021/01/24 12:22:46;;;;;;;;;;;;;;;11.67;45.57;99353.56;4868370;29;19936;-76
2021/01/24 12:25:12;;;;;;;;;;;;;;;11.62;45.70;99355.59;4871047;29;20022;-76
2021/01/24 12:27:40;;;;;;;;;;;;;;;11.60;45.93;99357.50;4873827;29;19929;-76
2021/01/24 12:30:08;;;;;;;;;;;;;;;11.58;46.11;99362.00;4927112;29;19960;-77
2021/01/24 12:32:37;;;;;;;;;;;;;;;11.60;46.14;99357.50;4933587;29;19935;-78
2021/01/24 12:35:06;;;;;;;;;;;;;;;11.64;46.17;99356.38;4934649;29;19935;-76
2021/01/24 12:37:37;;;;;;;;;;;;;;;11.64;46.36;99359.03;4949854;28;19959;-75
2021/01/24 13:49:20;;;;;;;;;;;;;;;11.17;48.89;99381.78;5185174;23;20462;-78
2021/01/24 13:52:31;;;;;;;;;;;;;;;11.09;49.34;99386.63;4933784;29;19986;-78
2021/01/24 13:55:01;;;;;;;;;;;;;;;11.09;49.24;99381.31;4931986;29;19926;-78
2021/01/24 13:58:12;;;;;;;;;;;;;;;11.05;49.28;99380.63;4931743;29;19955;-78
2021/01/24 14:01:22;;;;;;;;;;;;;;;11.02;49.61;99378.13;4910981;29;20012;-77
2021/01/24 14:12:24;;;;;;;;;;;;;;;10.89;49.77;99385.00;4839435;29;19932;-77
2021/01/24 14:15:51;;;;;;;;;;;;;;;;;;;;;
2021/01/24 14:25:33;;;;;;;;;;;;;;;10.68;50.38;99385.13;4837821;29;19953;-77
2021/01/24 14:28:45;;;;;;;;;;;;;;;10.64;50.37;99386.22;4893113;29;19931;-77
2021/01/24 14:31:35;;;;;;;;;;;;;;;10.62;50.71;99388.06;4878929;29;19931;-77
2021/01/24 14:34:34;;;;;;;;;;;;;;;10.56;50.53;99393.66;4894463;29;19935;-77
2021/01/24 14:41:41;;;;;;;;;;;;;;;;;;;;;
2021/01/24 16:26:45;;;;;;;;;;;;;;;8.88;52.73;99420.53;4596302;26;19958;-78
2021/01/24 16:29:31;;;;;;;;;;;;;;;8.87;53.51;99413.53;4880884;29;20031;-78
2021/01/24 16:32:03;;;;;;;;;;;;;;;8.85;53.35;99413.63;4869706;29;19963;-78
2021/01/24 16:46:24;;;;;;;;;;;;;;;8.73;53.93;99419.38;4759858;30;20001;-77
2021/01/24 16:49:52;;;;;;;;;;;;;;;8.69;53.79;99423.06;4792568;29;19939;-78
2021/01/24 17:00:39;;;;;;;;;;;;;;;8.61;54.33;99411.03;4800179;29;20036;-79
2021/01/24 17:47:48;;;;;;;;;;;;;;;9.07;45.75;99402.97;5935525;23;20004;-77
2021/01/24 17:50:44;;;;;;;;;;;;;;;9.13;45.45;99404.53;4931659;29;20001;-81
2021/01/24 17:53:30;;;;;;;;;;;;;;;9.01;45.50;99399.75;4925404;29;20475;-82
2021/01/24 17:59:04;;;;;;;;;;;;;;;8.76;47.39;99408.69;4897458;29;20024;-79
2021/01/24 18:01:35;;;;;;;;;;;;;;;8.72;47.87;99404.47;4910406;29;19995;-80
2021/01/24 18:04:06;;;;;;;;;;;;;;;8.70;48.75;99409.81;4909950;29;19935;-77
2021/01/24 18:06:40;;;;;;;;;;;;;;;8.70;49.31;99412.44;4895704;29;19931;-77
2021/01/24 18:09:10;;;;;;;;;;;;;;;8.69;48.96;99408.09;4903949;29;20335;-81
2021/01/24 18:30:22;;;;;;;;;;;;;;;8.65;51.10;99393.31;6030221;23;19921;-77
2021/01/24 18:43:57;;;;;;;;;;;;;;;8.61;52.09;99404.91;4883018;29;19932;-77
2021/01/24 18:46:24;;;;;;;;;;;;;;;8.59;52.56;99399.72;4886976;29;20448;-77
2021/01/24 18:48:51;;;;;;;;;;;;;;;8.59;52.18;99397.06;4865424;29;19951;-76
2021/01/24 18:51:18;;;;;;;;;;;;;;;8.57;52.26;99401.53;4880922;29;20391;-76
2021/01/24 18:53:44;;;;;;;;;;;;;;;8.55;52.50;99400.75;4897079;29;19995;-77